map of KSA home
KSA - Airport
Location
City:  Kosrae Island, Kosrae, Micronesia (Federated States of)
Name:Kosrae Airport
ICAO:PTSA
IATA:KSA
FAA LID:TTK

Details
Type:Airport (Aerodrome, Airfield)
Use:Public/Civil
Latitude:521'25"N (5.356972)
Longitude:16257'30"E (162.958389)
Datum:WGS 1984
Elevation:11 ft (3 m)
Variation:7.08E (WMM2015v2 magnetic declination)
-0.02 annual change
Runways:1
Longest:5752 × 150 ft (1753 × 45.5 m), paved

Time
Time Zone:UTC+11
Local Time:

Weather
METAR:PTSA 040355Z 05019KT 10SM BKN021 BKN130 OVC300 31/24 A2969 RMK LAST
TAF:PTSA 032345Z 0400/0424 05019KT P6SM SCT019 SCT130

Related Locations
Nearby:
Farthest:ASI: 12184 mi / 19608 km
Ascension Island (Georgetown) [RAF Ascension Island (Wideawake Field, Wide Awake Field)], AC, SH

Find:

   beyond  
but within

Other Information
Maps:
NOTAMs:
Links:
Sources:

  
  • flag of Micronesia (Federated States of)
  • flag of Kosrae
  

Sectional Chart

Flight Planning
at skyvector.com

Satellite Image

Google Maps Satellite view

 

Copyright © 2004-2019 Karl L. Swartz. All rights reserved.
The Great Circle Mapper name and logo are trademarks of the Great Circle Mapper.
All other trademarks mentioned herein belong to their respective owners.
Please see credits for attibutions and further copyright information.

  Follow gcmap on Facebook Follow gcmap on Twitter GCmap on LinkedIn

hCard Microformat

Geo Microformat